Terminal Aerodrome Forecast
Issued by NWS Sterling, VA

Home | Current Version | Previous Version | Text Only | Print | Product List | Glossary On
Versions: 1 2 3 4 5 6 7 8 9 10 11 12 13 14 15 16 17 18 19 20 21 22 23 24 25
000
FTUS41 KLWX 032340
TAFBWI
TAF
KBWI 032340Z 0400/0506 VRB04KT P6SM SCT060 BKN090
     FM041300 04007KT P6SM BKN050
     FM041900 10011G17KT P6SM BKN050
     FM050200 08010KT P6SM SCT025 BKN050=

USA.gov is the U.S. government's official web portal to all federal, state and local government web resources and services.